KBUR/BUR METAR and TAF weather

Enter ICAO airport designator
Station Type Date Time Source
KBUR METAR 2021/04/13 06:00 UTC NOAA

KBUR 130600Z 00000KT 10SM OVC017 13/09 A2987 RMK AO2 T01330094 $


Station Type Date Time Source
KBUR Decoded METAR 2021/04/13 06:00 UTC NOAA

BURBANK-GLENDALE-PASADENA, CA, United States (KBUR) 34-12N 118-22W 217M
Apr 13, 2021 - 02:00 AM EDT / 2021.04.13 0600 UTC
Wind: Calm:0
Visibility: 10 mile(s):0
Sky conditions: overcast
Temperature: 55.9 F (13.3 C)
Dew Point: 48.9 F (9.4 C)
Relative Humidity: 77%
Pressure (altimeter): 29.87 in. Hg (1011 hPa)
ob: KBUR 130600Z 00000KT 10SM OVC017 13/09 A2987 RMK AO2 T01330094
cycle: 6

Station Type Date Time Source
KBUR TAF 2021/04/13 07:33 UTC NOAA

TAF
AMD KBUR 130631Z 1307/1406 VRB03KT P6SM OVC017
FM131400 15006KT P6SM SCT015 BKN022
FM132000 18012KT P6SM BKN035
FM140400 16006KT P6SM OVC030

Example: see airport list